Fernando Porto

Recruteur en chef - Sampaio Correa
16 Déc 2027
Jeudi
Processus

Personnalité

Adaptabilité (4) Ambition (11) Controverse (14) Loyauté (1) Pression (3) Professionnalisme (7) Sportivité (2) Tempérament (19)

Profil

Style d'entraînement Démocratique
Diplôme Continental C
Détermination 8
Gestion des joueurs 6
Motivation 10
Discipline 4
Satisfaction professionnelle
100%
Fatigue
0%
Rôle Recruteur en chef
Salaire 19.1K p/s
Contrat 14.03.2029

Performance

Comportement Bon
Efficacité de l'entraînement
36%
Développement des joueurs
45%
Prévention des blessures
40%
Mise en place tactique
55%

Événements récents

A participé à une réunion de recrutement maintenant
A recommandé une cible de transfert maintenant
A participé à une réunion de recrutement 7j
A recommandé une cible de transfert 7j
A recommandé une cible de transfert 7j
A participé à une réunion de recrutement 7j
A participé à une réunion de recrutement 7j
A évalué un joueur 14j

Suivi en cours

328
Joueur Club Statut Capacité Confiance Observé Dernière observation Dernier vote
Lucas Monzón Alvarado Actif 104 / 103 40% 3 30.11.2027 -
Nicolás Paz San Martín SJ Actif 127 / 130 40% 5 30.11.2027 -
Fernando Bersano Madryn Actif 110 / 108 40% 2 29.11.2027 -
Willian Machado Mirassol Actif 134 / 123 40% 2 29.11.2027 -
Lucas Agazzi Defensor Sporting Actif 131 / 118 40% 2 27.11.2027 -
Delvin Alfonzo Deportivo Tachira Actif 111 / 127 40% 2 27.11.2027 -
Bruno Leyes Godoy Cruz Actif 120 / 138 40% 3 26.11.2027 -
Tomás Escalante Plaza Colonia Actif 124 / 134 40% 1 26.11.2027 -
Alejandro Molina Tristán Suárez Actif 118 / 109 40% 2 25.11.2027 -
Tomás Rojas Atlanta Actif 122 / 105 40% 1 25.11.2027 -
Francisco Maidana Gimnasia y Esgrima Actif 119 / 116 40% 1 24.11.2027 -
Facundo Ardiles Estudiantes Actif 107 / 117 40% 4 23.11.2027 -
Cole Bassett Portland Timbers Actif 118 / 134 40% 1 22.11.2027 -
Agustín Pereira Albion Actif 115 / 109 40% 2 21.11.2027 -
Agustín Benítez Defensores Actif 121 / 104 40% 1 21.11.2027 -
Jake Davis Sporting Kansas City Actif 115 / 116 40% 1 18.11.2027 -
Nicolás Fernández Maipú Actif 102 / 112 40% 1 18.11.2027 -
Franco Camargo Gimnasia y Esgrima Actif 103 / 117 40% 1 17.11.2027 -
Tristan Blackmon Vancouver Whitecaps Actif 114 / 129 40% 1 17.11.2027 -
Neto Moura Mirassol Actif 121 / 130 40% 1 15.11.2027 -
Luis Olivera Defensores Unidos Actif 104 / 110 40% 2 14.11.2027 -
Valentín Serrano Arsenal Actif 104 / 103 40% 1 14.11.2027 -
Gonzalo Asis Almagro Actif 104 / 121 40% 3 11.11.2027 -
Gonzalo Abrego Godoy Cruz Actif 124 / 131 40% 2 11.11.2027 -
Joel Ezra Enyimba Actif 87 / 87 40% 1 10.11.2027 -
Joseph Rosales Austin FC Actif 113 / 106 40% 1 09.11.2027 -
Juan Saborido Platense Actif 125 / 115 40% 1 08.11.2027 -
Ilay Feingold New England Revolution Actif 107 / 124 40% 1 07.11.2027 -
Matías Machado Racing Actif 106 / 117 40% 1 06.11.2027 -
Sergi Palencia Los Angeles Football Club Actif 122 / 137 40% 2 05.11.2027 -
Igor Jesus Los Angeles Football Club Actif 121 / 119 40% 1 05.11.2027 -
Tomás Jacob Atlanta United FC Actif 112 / 117 40% 2 01.11.2027 -
Yannick Bright Inter Miami CF Actif 128 / 116 40% 1 01.11.2027 -
Malte Amundsen Columbus Crew Actif 128 / 111 40% 1 28.10.2027 -
Nazareno Fernández Colombo Los Andes Actif 103 / 101 40% 1 28.10.2027 -
Emiliano Álvarez Progreso Actif 121 / 116 40% 1 27.10.2027 -
Tobías Ostchega America Mineiro Actif 129 / 130 40% 1 25.10.2027 -
Elías Báez Atlanta United FC Actif 127 / 131 40% 1 25.10.2027 -
Andrés Álvarez Aguilas Doradas Actif 101 / 114 40% 2 24.10.2027 -
Stephen Manyo Rivers United Actif 108 / 115 40% 1 24.10.2027 -
Juan Pablo Córdoba Gimnasia y Esgrima Actif 110 / 110 40% 2 23.10.2027 -
Godspower Akekoromowei El-Kanemi Warriors Actif 81 / 83 40% 2 20.10.2027 -
José Mercado Union Magdalena Actif 99 / 101 40% 1 16.10.2027 -
Abel Bustos Racing Actif 109 / 123 40% 1 15.10.2027 -
Enzo Silcan Almagro Actif 106 / 111 40% 1 15.10.2027 -
Marcelo Saracchi Houston Dynamo Actif 132 / 133 40% 1 14.10.2027 -
Walter Juárez Güemes Actif 119 / 106 40% 2 13.10.2027 -
Francisco Facello Chacarita Juniors Actif 115 / 124 40% 2 13.10.2027 -
Mateo Mendoza Godoy Cruz Actif 133 / 118 40% 3 10.10.2027 -
Gonzalo Gamarra Defensores Actif 101 / 103 40% 1 07.10.2027 -
Bryan Rivera Estudiantes de Merida Actif 103 / 95 40% 1 07.10.2027 -
Delfor Minervino Estudiantes Actif 122 / 110 40% 2 06.10.2027 -
Christopher Richards Enyimba Actif 104 / 104 40% 1 06.10.2027 -
Emanuel Iñíguez Morón Actif 106 / 111 40% 1 04.10.2027 -
Robert Voloder New York Red Bulls Actif 125 / 112 40% 2 01.10.2027 -
Leonardo Borja La Equidad Actif 140 / 141 40% 3 30.09.2027 -
Sergio Reguilón Inter Miami CF Actif 136 / 142 40% 2 30.09.2027 -
Dante Álvarez San Martín SJ Actif 110 / 117 40% 2 29.09.2027 -
Gino Barbieri Almagro Actif 118 / 121 40% 1 29.09.2027 -
Julián Cosi Madryn Actif 117 / 114 40% 1 28.09.2027 -
Obinna Nwobodo FC Cincinnati Actif 122 / 115 40% 1 27.09.2027 -
Abdulrafiu Taiwo Rivers United Actif 82 / 84 40% 1 27.09.2027 -
Santiago Corbo Miramar Misiones Actif 106 / 108 40% 3 26.09.2027 -
Kabiru Tijjani Shooting Stars Actif 105 / 95 40% 1 22.09.2027 -
Ignacio Abraham Banfield Actif 131 / 129 40% 2 21.09.2027 -
Ian Pérez Defensores Actif 101 / 103 40% 1 21.09.2027 -
Tomás Fernández Alvarado Actif 105 / 108 40% 1 20.09.2027 -
Pablo Adorno Plaza Colonia Actif 118 / 114 40% 1 15.09.2027 -
Vicente Poggi Godoy Cruz Actif 120 / 129 40% 1 14.09.2027 -
Gabriel Biriduba Bayelsa United Actif 96 / 73 40% 1 14.09.2027 -
Effimi Nsi Abia Warriors Actif 82 / 112 40% 1 12.09.2027 -
Andrés Ferro Metropolitanos Actif 111 / 105 40% 1 10.09.2027 -
Martín García Atlanta Actif 113 / 119 40% 1 09.09.2027 -
Ho-yeon Jung Minnesota United FC Actif 120 / 136 40% 1 07.09.2027 -
Aaron Herrera Charlotte Football Club Actif 124 / 118 40% 1 07.09.2027 -
Innocent Arigu Katsina United Actif 84 / 90 40% 2 03.09.2027 -
Daniel Dennis Ikorodu City Actif 100 / 80 40% 1 03.09.2027 -
Agustín Bolívar Quilmes Actif 115 / 121 40% 1 02.09.2027 -
Julius Emiloju Junior Bendel Insurance Actif 84 / 92 40% 1 02.09.2027 -
Santiago López García Banfield Actif 121 / 105 40% 1 29.08.2027 -
Mauricio Amaro Atlanta United FC Actif 130 / 120 40% 1 24.08.2027 -
Facundo Kidd Plaza Colonia Actif 103 / 103 40% 1 23.08.2027 -
Franco Malagueño Colegiales Actif 101 / 122 40% 1 21.08.2027 -
Andrea Meroni Mantova Actif 122 / 126 40% 1 20.08.2027 -
Ezequiel Neira Carabobo Actif 114 / 111 40% 1 20.08.2027 -
Federico Artioli Juve Stabia Actif 121 / 108 40% 1 18.08.2027 -
Aleš Matějů Spezia Actif 128 / 118 40% 1 18.08.2027 -
Roger Manríque Zulia Actif 110 / 112 40% 1 17.08.2027 -
Yolfran Caricote Metropolitanos Actif 111 / 97 40% 1 15.08.2027 -
Gianluca Busio Venezia Actif 141 / 151 40% 1 13.08.2027 -
Edoardo Masciangelo Catania Actif 104 / 127 40% 1 12.08.2027 -
Álex Lebarbier Real Sociedad Actif 117 / 123 40% 1 11.08.2027 -
Luca Villa Salernitana Actif 108 / 129 40% 1 11.08.2027 -
Gonzalo Mottes Chacarita Juniors Actif 117 / 110 40% 1 10.08.2027 -
Tomás Ribeiro Cultural Leonesa Actif 119 / 107 40% 1 10.08.2027 -
Jayden Sweeney Grimsby Town Actif 114 / 108 40% 2 09.08.2027 -
James Morris Leyton Orient Actif 113 / 127 40% 2 09.08.2027 -
Marcus Ifill Gillingham Actif 111 / 96 40% 1 08.08.2027 -
Nor Maviram Barnsley Actif 112 / 114 40% 1 08.08.2027 -
Rafael Brito Lusitânia Lourosa Actif 113 / 121 40% 2 07.08.2027 -
Terence Vancooten Burton Albion Actif 111 / 94 40% 1 07.08.2027 -
Matías Gómez Granada Actif 125 / 124 40% 1 06.08.2027 -
Lewis Freestone Stevenage Actif 100 / 113 40% 1 06.08.2027 -
David Sousa Casa Pia Actif 122 / 134 40% 2 04.08.2027 -
Hamza Choudhury Leicester City Actif 135 / 134 40% 1 04.08.2027 -
Zak Swanson Bradford City Actif 116 / 105 40% 2 03.08.2027 -
Jordan Gabriel Port Vale Actif 111 / 126 40% 1 03.08.2027 -
Udoka Godwin-Malife Burton Albion Actif 98 / 89 40% 3 02.08.2027 -
Andy Cannon Exeter City Actif 97 / 112 40% 1 02.08.2027 -
Lorenzo Di Stefano Torres Actif 108 / 109 40% 1 20.07.2027 -
Dale Taylor Blackpool Actif 113 / 112 40% 1 20.07.2027 -
Giacomo Zecca Torres Actif 102 / 118 40% 1 13.07.2027 -
Aaron Collins Milton Keynes Dons Actif 113 / 121 40% 1 13.07.2027 -
Adriel São Paulo Actif 84 / 79 62% 1 21.06.2027 Approuver
Lamine Guèye Barrow AFC Actif 128 / 112 40% 1 14.06.2027 -
Kyle Wootton Stockport County Actif 127 / 108 40% 1 14.06.2027 -
Jay Matete Milton Keynes Dons Actif 126 / 114 40% 1 01.06.2027 -
Thomas Luciano Plymouth Argyle Actif 99 / 109 40% 2 31.05.2027 -
David Turnbull Cardiff City Actif 110 / 133 40% 1 31.05.2027 -
Dom Ballard Leyton Orient Actif 124 / 114 40% 1 31.05.2027 -
Ryan Stirk Chesterfield Actif 109 / 103 40% 1 30.05.2027 -
Robbie McKenzie Gillingham Actif 85 / 78 40% 1 29.05.2027 -
Liam Bennett Cambridge United Actif 107 / 118 40% 1 29.05.2027 -
Josh Tymon Swansea City Actif 133 / 111 40% 3 28.05.2027 -
Ilario Monterisi Frosinone Actif 144 / 123 40% 1 28.05.2027 -
Mirko Topić Norwich City Actif 111 / 111 40% 2 24.05.2027 -
Guillem Molina Huesca Actif 121 / 121 40% 1 23.05.2027 -
Mattia Viti Sampdoria Actif 143 / 133 40% 1 21.05.2027 -
Bali Mumba Huddersfield Town Actif 129 / 133 40% 1 21.05.2027 -
Teden Mengi Luton Town Actif 135 / 114 40% 2 20.05.2027 Plus d'infos
Weverson Gil Vicente Actif 104 / 104 40% 2 19.05.2027 -
Radinio Balker Huddersfield Town Actif 118 / 109 40% 6 19.05.2027 -
Elliot Bonds Fleetwood Town Actif 110 / 106 40% 1 18.05.2027 -
Lewis Bate Stockport County Actif 114 / 137 40% 1 16.05.2027 -
Jack Tucker Colchester United Actif 106 / 84 40% 1 14.05.2027 -
Charlie Webster Burton Albion Actif 121 / 106 40% 1 13.05.2027 -
Max Lowe Sheffield Wednesday Actif 132 / 128 40% 1 13.05.2027 -
Archie Collins Peterborough United Actif 113 / 113 40% 2 12.05.2027 -
Lewis Wing Reading Actif 117 / 118 40% 1 12.05.2027 -
Dennis Cirkin Queens Park Rangers Actif 139 / 122 40% 1 10.05.2027 -
Idris El Mizouni Leyton Orient Actif 125 / 115 40% 1 09.05.2027 -
Gonçalo Oliveira Benfica Actif 119 / 109 40% 2 06.05.2027 -
Isaac Kyereh Liberty Professionals Actif 127 / 133 40% 1 05.05.2027 -
Kyle John Port Vale Actif 95 / 103 40% 3 04.05.2027 -
James Furlong Walsall Actif 105 / 102 40% 1 03.05.2027 -
Charlie Savage Reading Actif 114 / 102 40% 1 29.04.2027 -
Ellis Iandolo Colchester United Actif 92 / 113 40% 1 27.04.2027 -
Akin Famewo Bolton Wanderers Actif 101 / 111 40% 1 26.04.2027 -
Roni AVS Actif 115 / 103 40% 5 23.04.2027 -
Gonçalo Cardoso Pacos de Ferreira Actif 111 / 114 40% 3 23.04.2027 -
Valery Académico de Viseu Actif 120 / 108 40% 6 21.04.2027 -
Nabil Touaizi Alverca Actif 110 / 133 40% 5 21.04.2027 -
Liziero Nacional Actif 114 / 110 40% 3 20.04.2027 -
Zé Carlos Gil Vicente Actif 128 / 113 40% 5 20.04.2027 -
Javi Sánchez Arouca Actif 147 / 116 40% 3 18.04.2027 -
Andre Dozzell Doncaster Rovers Actif 127 / 109 40% 1 18.04.2027 -
Ethan Pye Stockport County Actif 125 / 114 40% 1 17.04.2027 -
Caolan Boyd-Munce Wycombe Wanderers Actif 108 / 127 40% 1 16.04.2027 -
Luís Esteves Atlas Actif 125 / 124 40% 6 15.04.2027 -
João Teixeira Porto Actif 95 / 100 40% 3 15.04.2027 -
Dinis Rodrigues Porto Actif 104 / 89 40% 2 14.04.2027 -
Robinho Académico de Viseu Actif 117 / 119 40% 2 13.04.2027 -
Toni Tamarit Alverca Actif 112 / 107 40% 1 13.04.2027 -
Jacques Ekomié Wrexham Actif 133 / 123 40% 1 11.04.2027 -
Rodrigo Pinheiro Famalicao Actif 113 / 120 40% 3 09.04.2027 -
Luís Bastos Oliveirense Actif 87 / 88 40% 2 09.04.2027 -
Paulo Henrique Maritimo Actif 117 / 127 40% 1 07.04.2027 -
Francisco Moura Lusitânia Lourosa Actif 136 / 140 40% 3 03.04.2027 -
Marc Baró Leiria Actif 102 / 95 40% 3 02.04.2027 -
Nicolas Madsen Queens Park Rangers Actif 143 / 138 40% 1 31.03.2027 -
MT Santa Clara Actif 109 / 129 40% 1 31.03.2027 -
Facundo Cáseres Gil Vicente Actif 124 / 120 40% 2 30.03.2027 -
Maxime Dominguez Maritimo Actif 124 / 131 40% 1 30.03.2027 -
Felipe Silva Porto Actif 108 / 111 40% 1 27.03.2027 -
Tom Moustier Estrela da Amadora Actif 122 / 112 40% 1 27.03.2027 -
Pedro Bondo Famalicao Actif 102 / 113 40% 3 26.03.2027 -
Miguel Pires Vizela Actif 112 / 108 40% 2 25.03.2027 -
Bruno Rodrigues Chaves Actif 119 / 105 40% 1 22.03.2027 -
Ricard Sánchez Estoril Praia Actif 115 / 134 40% 5 21.03.2027 -
Iano Simão Penafiel Actif 104 / 97 40% 1 21.03.2027 -
Volnei Torreense Actif 108 / 122 40% 1 19.03.2027 -
Anthony Correia Académico de Viseu Actif 106 / 104 40% 1 16.03.2027 -
Martim Cunha Porto Actif 91 / 110 40% 1 12.03.2027 -
Rob Atkinson Bristol City Actif 120 / 136 40% 1 12.03.2027 -
Kellen Fisher Norwich City Actif 135 / 133 40% 1 11.03.2027 -
Soufiane Messeguem Académico de Viseu Actif 119 / 123 40% 2 06.03.2027 -
Tiago Esgaio Arouca Actif 122 / 104 40% 1 06.03.2027 -
Harry Clarke Preston Actif 125 / 122 40% 2 04.03.2027 -
Marvin Elimbi Gil Vicente Actif 140 / 119 40% 3 04.03.2027 -
Jack Currie Oxford United Actif 138 / 120 40% 2 03.03.2027 -
Afonso Peixoto Felgueiras Actif 96 / 116 40% 2 27.02.2027 -
Brayan Medina Tondela Actif 115 / 105 40% 3 27.02.2027 -
Mateja Stjepanović Moreirense Actif 121 / 132 40% 2 23.02.2027 -
Leonardo Realpe Famalicao Actif 121 / 116 40% 2 23.02.2027 -
Lucas Soares Santa Clara Actif 127 / 126 40% 5 22.02.2027 -
Aleksandar Busnić KV Kortrijk Actif 124 / 108 40% 2 22.02.2027 -
Maga Leiria Actif 103 / 113 40% 2 21.02.2027 -
Dinis Pinto Moreirense Actif 114 / 114 40% 4 21.02.2027 -
Pedro Ferreira Penafiel Actif 131 / 118 40% 1 20.02.2027 -
Alfred Caicedo Vizela Actif 100 / 128 40% 1 12.02.2027 -
Genaro Leiria Actif 96 / 91 40% 1 08.02.2027 -
Jason Nainggolan Mouscron Actif 111 / 112 40% 1 07.02.2027 -
Fernando Fonseca Leixões Actif 118 / 126 40% 5 06.02.2027 -
Jordan Holsgrove Estoril Praia Actif 129 / 134 40% 2 06.02.2027 -
Renato Sanches AVS Actif 116 / 120 40% 2 04.02.2027 -
Aarón Mejía Tijuana Actif 117 / 122 40% 1 04.02.2027 -
Marcus McGuane Huddersfield Town Actif 117 / 115 40% 1 30.01.2027 -
Finn van Breemen Famalicao Actif 132 / 105 40% 1 28.01.2027 -
Miguel Campos Santa Clara Actif 110 / 130 40% 2 27.01.2027 -
Dylan Collard Lusitânia Lourosa Actif 110 / 113 40% 1 27.01.2027 -
Jackson Porozo Tijuana Actif 123 / 115 40% 1 25.01.2027 -
Rémy Vita Tondela Actif 100 / 123 40% 1 24.01.2027 -
Phil Neumann Birmingham Actif 111 / 104 40% 1 22.01.2027 -
João Queirós Feirense Actif 122 / 92 40% 1 19.01.2027 -
Arnau Casas Torreense Actif 123 / 100 40% 3 14.01.2027 -
Abdu Conté Casa Pia Actif 111 / 127 40% 1 09.01.2027 -
Max Scholze Estrela da Amadora Actif 109 / 102 40% 2 05.01.2027 -
André Silva Tondela Actif 138 / 123 40% 2 30.12.2026 -
Pablo Fernández Leiria Actif 117 / 97 40% 2 30.12.2026 -
Rafinha São Paulo Actif 88 / 76 55% 1 21.12.2026 -
João Muniz Sporting CP Actif 103 / 122 40% 4 16.12.2026 -
Tiago Ribeiro Oliveirense Actif 120 / 101 40% 2 16.12.2026 -
Orlando Neto São Paulo Actif 101 / 103 55% 1 07.12.2026 Observer
Lucas André São Paulo Actif 91 / 97 55% 1 06.12.2026 -
Jorge Meireles AVS Actif 122 / 101 40% 1 03.12.2026 Plus d'infos
Jhojan Julio Queretaro Actif 131 / 130 40% 1 03.12.2026 -
Toby Collyer West Bromwich Albion Actif 140 / 116 40% 1 27.11.2026 -
Milton Valenzuela Atlas Actif 111 / 107 40% 1 26.11.2026 -
Diogo Spencer Alverca Actif 132 / 135 40% 3 25.11.2026 -
Bosun Lawal Stoke City Actif 114 / 139 40% 1 24.11.2026 -
Dario Špikić Rio Ave Actif 115 / 125 40% 1 23.11.2026 -
Mathias De Amorim Famalicao Actif 112 / 115 40% 1 20.11.2026 -
Alejandro Gómez Tijuana Actif 129 / 121 40% 1 18.11.2026 -
Paulo Moreira Farense Actif 120 / 118 40% 2 17.11.2026 -
Miguel Baeza Nacional Actif 122 / 97 40% 1 16.11.2026 -
Adonis Frías Atlas Actif 139 / 117 40% 4 12.11.2026 -
João Victor Mirassol Actif 110 / 125 40% 1 11.11.2026 -
Santi García Gil Vicente Actif 118 / 148 40% 1 11.11.2026 -
Marcos Peña Famalicao Actif 111 / 121 40% 2 08.11.2026 -
Lorougnon Gohi Académico de Viseu Actif 102 / 126 40% 2 07.11.2026 -
Jordan van der Gaag Leiria Actif 128 / 110 40% 1 07.11.2026 -
Bernardo Schappo Estrela da Amadora Actif 110 / 137 40% 2 02.11.2026 -
Sidney Lima Braga Actif 124 / 114 40% 1 01.11.2026 -
Giorgos Liavas Rio Ave Actif 109 / 120 40% 1 31.10.2026 -
João Basso Hajduk Split Actif 106 / 101 40% 1 31.10.2026 -
Jérémy Livolant Casa Pia Actif 138 / 133 40% 1 31.10.2026 -
Mario Climent Arouca Actif 111 / 121 40% 1 29.10.2026 -
Joseph Nduquidi Farense Actif 122 / 100 40% 1 28.10.2026 -
Matija Mitrović Vitoria Guimaraes Actif 133 / 135 40% 1 25.10.2026 -
Mateo Garavito Deportivo Pasto Actif 111 / 115 40% 1 24.10.2026 -
Pablo Rosario Porto Actif 142 / 154 40% 1 24.10.2026 -
Matheus Bidu Corinthians Actif 117 / 128 40% 1 23.10.2026 -
Emerson Royal Flamengo Actif 121 / 135 40% 1 22.10.2026 -
Yaya Sithole Tondela Actif 105 / 109 40% 1 22.10.2026 -
Leandro Dias Pacos de Ferreira Actif 96 / 99 40% 1 21.10.2026 -
Kevin Höög Jansson Estrela da Amadora Actif 103 / 112 40% 1 21.10.2026 -
Afonso Freitas Felgueiras Actif 114 / 105 40% 1 20.10.2026 -
Max Bird Birmingham Actif 134 / 129 40% 1 17.10.2026 -
Rômulo Tigres Actif 129 / 131 40% 1 16.10.2026 -
Junior Hernández Deportes Tolima Actif 129 / 105 40% 1 16.10.2026 -
Michael Carcelén Queretaro Actif 109 / 123 40% 1 14.10.2026 -
Alexander Bah Benfica Actif 142 / 129 40% 1 14.10.2026 -
Tom van de Looi Famalicao Actif 136 / 132 40% 1 12.10.2026 -
Gustavo Garcia Famalicao Actif 121 / 121 40% 1 11.10.2026 -
Gonçalo Nogueira Vitoria Guimaraes Actif 135 / 125 40% 1 10.10.2026 -
Chiheb Labidi Nacional Actif 123 / 98 40% 1 09.10.2026 -
Daniel Júnior Nacional Actif 124 / 107 40% 1 07.10.2026 -
Rafael Barbosa Feirense Actif 103 / 106 40% 2 06.10.2026 -
Paik Seung-Ho Birmingham Actif 138 / 122 40% 1 06.10.2026 -
Figueiredo Alverca Actif 111 / 137 40% 1 06.10.2026 -
Kévin Denkey FC Cincinnati Actif 131 / 133 40% 1 26.09.2026 -
Duk Atlas Actif 118 / 116 40% 1 26.09.2026 -
Alejandro Melo Cibalia Actif 127 / 98 40% 2 25.09.2026 -
Yanis Begraoui Estoril Praia Actif 147 / 122 40% 1 25.09.2026 -
André Lacximicant Estoril Praia Actif 125 / 111 40% 1 23.09.2026 -
Rafael Navarro St. Louis CITY SC Actif 129 / 123 40% 1 23.09.2026 -
Adnan Courtois KV Oostende Actif 128 / 115 40% 3 22.09.2026 -
Santiago Sala Güemes Actif 116 / 121 40% 1 22.09.2026 -
Tomás Chancalay Minnesota United FC Actif 132 / 138 40% 2 20.09.2026 -
Lucas Duarte Felgueiras Actif 109 / 118 40% 1 20.09.2026 -
David Miculescu FCSB Actif 124 / 138 40% 1 18.09.2026 -
Héctor Hernández Gil Vicente Actif 121 / 137 40% 2 16.09.2026 -
Dany Jean Torreense Actif 117 / 118 40% 1 16.09.2026 -
Rodrigo Bogarín Barracas Central Actif 130 / 128 40% 2 15.09.2026 -
Alexandre Duville-Parsemain Moreirense Actif 103 / 99 40% 2 13.09.2026 -
Esteban da Silva Racing Actif 115 / 123 40% 1 13.09.2026 -
Vasco Moreira Alverca Actif 119 / 127 40% 1 13.09.2026 -
André Clovis Leiria Actif 123 / 127 40% 1 10.09.2026 -
Wessam Abou Ali Columbus Crew Actif 133 / 139 40% 1 09.09.2026 -
Luciano Cosentino Wanderers Actif 130 / 134 40% 1 09.09.2026 -
João Gonçalves Felgueiras Actif 127 / 101 40% 1 08.09.2026 -
Aynsley Pears Blackburn Rovers Actif 120 / 124 40% 1 08.09.2026 -
Isaac James Alverca Actif 96 / 92 40% 2 07.09.2026 -
Daniel Sappa San Miguel Actif 106 / 117 40% 1 07.09.2026 -
Joaquín Silva Plaza Colonia Actif 112 / 99 40% 1 07.09.2026 -
Aleksandar Vulić Vizela Actif 98 / 90 40% 1 05.09.2026 -
Yousef Salech Cardiff City Actif 112 / 142 40% 1 02.09.2026 -
Armindo Sieb Los Angeles Football Club Actif 117 / 112 40% 1 02.09.2026 -
Henrique Araújo Casa Pia Actif 131 / 114 40% 1 01.09.2026 -
Morgan Guilavogui Real Salt Lake Actif 138 / 131 40% 1 31.08.2026 -
Pep Biel Charlotte Football Club Actif 140 / 136 40% 1 30.08.2026 -
Federico Martínez Liverpool Montevideo Actif 110 / 104 40% 1 30.08.2026 -
Chuchu Ramírez Nacional Actif 126 / 126 40% 2 28.08.2026 -
Vinícius Lopes Santa Clara Actif 123 / 114 40% 1 27.08.2026 -
Alejo Cruz Juventud Actif 116 / 117 40% 1 24.08.2026 -
Tiago Leite Felgueiras Actif 85 / 85 40% 1 23.08.2026 -
Jordan Morris Seattle Sounders Actif 135 / 131 40% 2 21.08.2026 -
Breel Embolo Atlanta United FC Actif 137 / 140 40% 2 21.08.2026 -
Mohammed Bouldini Académico de Viseu Actif 137 / 132 40% 1 20.08.2026 -
Diego Romero Universitario Actif 127 / 122 40% 1 20.08.2026 -
Antonio Gomis Vizela Actif 98 / 131 40% 1 20.08.2026 -
André Moreira Oliveirense Actif 122 / 129 40% 1 17.08.2026 -
Dylan Nandín Arouca Actif 117 / 122 40% 1 17.08.2026 -
Rafik Guitane Estoril Praia Actif 145 / 143 40% 1 16.08.2026 -
Tiago Galletto AVS Actif 100 / 99 40% 1 16.08.2026 -
John Kennedy Fluminense Actif 127 / 120 40% 1 15.08.2026 -
Enzo Vázquez Central Norte Actif 112 / 111 40% 1 13.08.2026 -
Jorge Fernandes Gil Vicente Actif 119 / 134 40% 1 12.08.2026 -
Timothy Castagne Fulham Actif 147 / 133 40% 1 10.08.2026 -
Taichi Fukui Arouca Actif 124 / 114 40% 1 09.08.2026 -
Zé Leite Leixões Actif 124 / 100 40% 1 08.08.2026 -
Roméo Beney Famalicao Actif 112 / 124 40% 1 05.08.2026 -
Jesus Ferreira Seattle Sounders Actif 129 / 131 40% 1 05.08.2026 -
Ferro Estoril Praia Actif 103 / 95 40% 1 04.08.2026 -
Ignacio de Arruabarrena Arouca Actif 139 / 107 40% 1 04.08.2026 -
Andrew Flamengo Actif 120 / 122 40% 1 04.08.2026 -
José Julián Martínez Alverca Actif 107 / 127 40% 1 02.08.2026 -
Francisco Ramos Pacos de Ferreira Actif 111 / 122 40% 1 01.08.2026 -